UAL482 KEWR-KSLC
Flight info
| Callsign | UAL482 |
|---|---|
| Flight time | 4h 21m |
| Altitude | 36000 |
| Route | DCT COATE Q436 RRONS DCT TVC DCT SAW DCT GFK DCT HIDEL DCT BIL DCT JAC CARTR1 |
| Aircraft | B77W/H-SDE1E2E3FGHIJ2J3J4J5M1RWXY/LB1D1 |
Departure
| Time | 2026-04-24 09:27 |
|---|---|
| Airport | Newark Liberty International Airport (KEWR) |
Arrival
| Time | 2026-04-24 13:49 |
|---|---|
| Airport | Salt Lake City International Airport (KSLC) |
| Time | Latitude | Longitude | Altitude | Speed | Heading |
|---|---|---|---|---|---|
| 2026-04-24 08:40 | 40.69879 | -74.18081 | 25 ft | 0 kts | 91° |
| 2026-04-24 09:11 | 40.69880 | -74.18098 | 26 ft | 2 kts | 92° |
| 2026-04-24 09:11 | 40.69880 | -74.18120 | 27 ft | 2 kts | 92° |
| 2026-04-24 09:11 | 40.69878 | -74.18141 | 30 ft | 2 kts | 47° |
| 2026-04-24 09:12 | 40.69865 | -74.18153 | 31 ft | 2 kts | 14° |
| 2026-04-24 09:12 | 40.69852 | -74.18155 | 31 ft | 1 kts | 341° |
| 2026-04-24 09:12 | 40.69850 | -74.18155 | 31 ft | 0 kts | 335° |
| 2026-04-24 09:15 | 40.69851 | -74.18155 | 31 ft | 1 kts | 335° |
| 2026-04-24 09:15 | 40.69881 | -74.18175 | 31 ft | 8 kts | 334° |
| 2026-04-24 09:15 | 40.69935 | -74.18180 | 26 ft | 8 kts | 11° |
| 2026-04-24 09:16 | 40.69988 | -74.18159 | 27 ft | 8 kts | 21° |
| 2026-04-24 09:16 | 40.70006 | -74.18095 | 28 ft | 8 kts | 94° |
| 2026-04-24 09:16 | 40.70001 | -74.18006 | 27 ft | 12 kts | 94° |
| 2026-04-24 09:16 | 40.69993 | -74.17886 | 27 ft | 14 kts | 94° |
| 2026-04-24 09:17 | 40.69985 | -74.17753 | 29 ft | 15 kts | 95° |
| 2026-04-24 09:17 | 40.69975 | -74.17614 | 30 ft | 16 kts | 95° |
| 2026-04-24 09:17 | 40.69963 | -74.17466 | 28 ft | 16 kts | 100° |
| 2026-04-24 09:17 | 40.69925 | -74.17326 | 27 ft | 16 kts | 117° |
| 2026-04-24 09:18 | 40.69852 | -74.17211 | 26 ft | 16 kts | 135° |
| 2026-04-24 09:18 | 40.69771 | -74.17117 | 29 ft | 13 kts | 142° |
| 2026-04-24 09:18 | 40.69694 | -74.17055 | 29 ft | 13 kts | 154° |
| 2026-04-24 09:18 | 40.69610 | -74.17011 | 25 ft | 13 kts | 161° |
| 2026-04-24 09:19 | 40.69521 | -74.16983 | 28 ft | 14 kts | 171° |
| 2026-04-24 09:19 | 40.69420 | -74.16972 | 27 ft | 15 kts | 179° |
| 2026-04-24 09:19 | 40.69305 | -74.16994 | 25 ft | 19 kts | 197° |
| 2026-04-24 09:19 | 40.69178 | -74.17064 | 27 ft | 20 kts | 205° |
| 2026-04-24 09:20 | 40.69047 | -74.17146 | 22 ft | 22 kts | 205° |
| 2026-04-24 09:20 | 40.68911 | -74.17231 | 30 ft | 22 kts | 206° |
| 2026-04-24 09:20 | 40.68777 | -74.17319 | 27 ft | 22 kts | 205° |
| 2026-04-24 09:20 | 40.68641 | -74.17404 | 30 ft | 22 kts | 205° |
| 2026-04-24 09:21 | 40.68505 | -74.17490 | 28 ft | 22 kts | 206° |
| 2026-04-24 09:21 | 40.68372 | -74.17575 | 26 ft | 22 kts | 206° |
| 2026-04-24 09:21 | 40.68229 | -74.17666 | 23 ft | 24 kts | 206° |
| 2026-04-24 09:21 | 40.68081 | -74.17760 | 24 ft | 24 kts | 206° |
| 2026-04-24 09:22 | 40.67932 | -74.17855 | 30 ft | 24 kts | 206° |
| 2026-04-24 09:22 | 40.67846 | -74.17911 | 30 ft | 7 kts | 203° |
| 2026-04-24 09:22 | 40.67819 | -74.17909 | 29 ft | 0 kts | 157° |
| 2026-04-24 09:23 | 40.67817 | -74.17908 | 25 ft | 2 kts | 155° |
| 2026-04-24 09:23 | 40.67796 | -74.17875 | 23 ft | 7 kts | 122° |
| 2026-04-24 09:24 | 40.67774 | -74.17813 | 24 ft | 8 kts | 114° |
| 2026-04-24 09:24 | 40.67750 | -74.17745 | 25 ft | 8 kts | 115° |
| 2026-04-24 09:24 | 40.67729 | -74.17683 | 28 ft | 1 kts | 107° |
| 2026-04-24 09:24 | 40.67731 | -74.17673 | 27 ft | 1 kts | 72° |
| 2026-04-24 09:25 | 40.67746 | -74.17656 | 25 ft | 5 kts | 36° |
| 2026-04-24 09:25 | 40.67787 | -74.17627 | 23 ft | 8 kts | 26° |
| 2026-04-24 09:25 | 40.67825 | -74.17577 | 20 ft | 8 kts | 85° |
| 2026-04-24 09:25 | 40.67801 | -74.17513 | 21 ft | 8 kts | 116° |
| 2026-04-24 09:26 | 40.67780 | -74.17443 | 20 ft | 8 kts | 107° |
| 2026-04-24 09:26 | 40.67805 | -74.17391 | 20 ft | 0 kts | 26° |
| 2026-04-24 09:26 | 40.67806 | -74.17391 | 22 ft | 3 kts | 26° |
| 2026-04-24 09:26 | 40.68027 | -74.17252 | 24 ft | 74 kts | 25° |
| 2026-04-24 09:27 | 40.68716 | -74.16816 | 24 ft | 143 kts | 26° |
| 2026-04-24 09:27 | 40.69785 | -74.16146 | 87 ft | 190 kts | 25° |
| 2026-04-24 09:27 | 40.70996 | -74.15381 | 643 ft | 195 kts | 25° |
| 2026-04-24 09:27 | 40.72224 | -74.14626 | 1427 ft | 192 kts | 24° |
| 2026-04-24 09:28 | 40.73398 | -74.13833 | 2218 ft | 192 kts | 25° |
| 2026-04-24 09:28 | 40.74641 | -74.12975 | 2489 ft | 217 kts | 26° |
| 2026-04-24 09:28 | 40.76091 | -74.12232 | 2863 ft | 228 kts | 4° |
| 2026-04-24 09:28 | 40.77681 | -74.12437 | 3443 ft | 235 kts | 347° |
| 2026-04-24 09:29 | 40.79318 | -74.12859 | 4057 ft | 246 kts | 347° |
| 2026-04-24 09:29 | 40.81031 | -74.13236 | 4785 ft | 253 kts | 347° |
| 2026-04-24 09:29 | 40.82766 | -74.13560 | 5612 ft | 255 kts | 347° |
| 2026-04-24 09:29 | 40.84553 | -74.13842 | 6409 ft | 259 kts | 347° |
| 2026-04-24 09:30 | 40.86260 | -74.14386 | 7087 ft | 249 kts | 324° |
| 2026-04-24 09:30 | 40.87381 | -74.16001 | 7894 ft | 237 kts | 297° |
| 2026-04-24 09:30 | 40.88176 | -74.17923 | 8543 ft | 241 kts | 301° |
| 2026-04-24 09:30 | 40.89064 | -74.19797 | 9359 ft | 241 kts | 303° |
| 2026-04-24 09:31 | 40.89973 | -74.21659 | 10201 ft | 241 kts | 303° |
| 2026-04-24 09:31 | 40.90898 | -74.23540 | 10627 ft | 258 kts | 304° |
| 2026-04-24 09:31 | 40.91926 | -74.25627 | 10812 ft | 283 kts | 303° |
| 2026-04-24 09:31 | 40.93051 | -74.27916 | 11010 ft | 309 kts | 304° |
| 2026-04-24 09:32 | 40.94255 | -74.30354 | 11561 ft | 321 kts | 304° |
| 2026-04-24 09:32 | 40.95496 | -74.32858 | 12415 ft | 327 kts | 304° |
| 2026-04-24 09:32 | 40.96746 | -74.35380 | 13416 ft | 330 kts | 304° |
| 2026-04-24 09:32 | 40.98024 | -74.37952 | 14174 ft | 338 kts | 305° |
| 2026-04-24 09:33 | 40.99326 | -74.40574 | 14962 ft | 344 kts | 305° |
| 2026-04-24 09:33 | 41.00646 | -74.43236 | 15875 ft | 346 kts | 305° |
| 2026-04-24 09:33 | 41.01976 | -74.45921 | 16745 ft | 350 kts | 305° |
| 2026-04-24 09:33 | 41.03307 | -74.48610 | 17566 ft | 355 kts | 305° |
| 2026-04-24 09:34 | 41.04676 | -74.51379 | 18352 ft | 360 kts | 305° |
| 2026-04-24 09:34 | 41.06060 | -74.54180 | 19049 ft | 364 kts | 305° |
| 2026-04-24 09:34 | 41.07455 | -74.57003 | 19794 ft | 367 kts | 305° |
| 2026-04-24 09:34 | 41.08866 | -74.59863 | 20542 ft | 371 kts | 304° |
| 2026-04-24 09:35 | 41.10271 | -74.62710 | 21241 ft | 375 kts | 304° |
| 2026-04-24 09:35 | 41.11708 | -74.65627 | 21913 ft | 379 kts | 304° |
| 2026-04-24 09:35 | 41.13152 | -74.68575 | 22584 ft | 383 kts | 304° |
| 2026-04-24 09:35 | 41.14567 | -74.71605 | 23261 ft | 387 kts | 302° |
| 2026-04-24 09:36 | 41.15932 | -74.74708 | 23826 ft | 391 kts | 301° |
| 2026-04-24 09:36 | 41.17279 | -74.77833 | 24352 ft | 395 kts | 301° |
| 2026-04-24 09:36 | 41.18644 | -74.81012 | 24903 ft | 398 kts | 301° |
| 2026-04-24 09:36 | 41.20027 | -74.84225 | 25404 ft | 402 kts | 301° |
| 2026-04-24 09:37 | 41.21430 | -74.87474 | 25920 ft | 405 kts | 301° |
| 2026-04-24 09:37 | 41.22361 | -74.89627 | 26258 ft | 407 kts | 301° |
| 2026-04-24 09:37 | 41.24265 | -74.94029 | 26937 ft | 412 kts | 301° |
| 2026-04-24 09:37 | 41.25679 | -74.97308 | 27389 ft | 415 kts | 301° |
| 2026-04-24 09:38 | 41.27123 | -75.00655 | 27844 ft | 418 kts | 301° |
| 2026-04-24 09:38 | 41.28104 | -75.02927 | 28141 ft | 420 kts | 301° |
| 2026-04-24 09:38 | 41.29548 | -75.06272 | 28537 ft | 423 kts | 301° |
| 2026-04-24 09:38 | 41.31513 | -75.10825 | 28912 ft | 430 kts | 301° |
| 2026-04-24 09:39 | 41.32522 | -75.13164 | 29167 ft | 432 kts | 301° |
| 2026-04-24 09:39 | 41.34007 | -75.16611 | 29561 ft | 434 kts | 301° |
| 2026-04-24 09:39 | 41.35511 | -75.20106 | 29931 ft | 436 kts | 301° |
| 2026-04-24 09:39 | 41.37020 | -75.23618 | 30230 ft | 438 kts | 301° |
| 2026-04-24 09:40 | 41.38534 | -75.27146 | 30589 ft | 438 kts | 301° |
| 2026-04-24 09:40 | 41.40041 | -75.30660 | 31027 ft | 436 kts | 301° |
| 2026-04-24 09:40 | 41.41540 | -75.34160 | 31448 ft | 434 kts | 301° |
| 2026-04-24 09:40 | 41.43037 | -75.37653 | 31846 ft | 433 kts | 301° |
| 2026-04-24 09:41 | 41.44530 | -75.41144 | 32235 ft | 432 kts | 301° |
| 2026-04-24 09:41 | 41.45999 | -75.44593 | 32513 ft | 433 kts | 301° |
| 2026-04-24 09:41 | 41.47441 | -75.48139 | 32757 ft | 435 kts | 298° |
| 2026-04-24 09:41 | 41.48659 | -75.51853 | 33154 ft | 436 kts | 293° |
| 2026-04-24 09:42 | 41.49718 | -75.55647 | 33598 ft | 433 kts | 293° |
| 2026-04-24 09:42 | 41.50776 | -75.59413 | 33971 ft | 432 kts | 294° |
| 2026-04-24 09:42 | 41.51826 | -75.63116 | 34262 ft | 431 kts | 294° |
| 2026-04-24 09:42 | 41.52899 | -75.66867 | 34537 ft | 431 kts | 294° |
| 2026-04-24 09:43 | 41.53970 | -75.70603 | 34831 ft | 430 kts | 294° |
| 2026-04-24 09:43 | 41.55042 | -75.74332 | 35116 ft | 429 kts | 294° |
| 2026-04-24 09:43 | 41.56096 | -75.78004 | 35393 ft | 428 kts | 294° |
| 2026-04-24 09:43 | 41.57164 | -75.81737 | 35544 ft | 430 kts | 293° |
| 2026-04-24 09:44 | 41.58228 | -75.85477 | 35735 ft | 431 kts | 293° |
| 2026-04-24 09:44 | 41.59293 | -75.89251 | 35829 ft | 434 kts | 293° |
| 2026-04-24 09:44 | 41.61406 | -75.96762 | 35907 ft | 433 kts | 293° |
| 2026-04-24 09:45 | 41.63528 | -76.04267 | 35902 ft | 427 kts | 293° |
| 2026-04-24 09:45 | 41.65631 | -76.11689 | 35915 ft | 426 kts | 293° |
| 2026-04-24 09:46 | 41.67715 | -76.19071 | 35906 ft | 426 kts | 293° |
| 2026-04-24 09:46 | 41.69801 | -76.26529 | 35912 ft | 429 kts | 293° |
| 2026-04-24 09:47 | 41.71888 | -76.34029 | 35920 ft | 431 kts | 293° |
| 2026-04-24 09:47 | 41.73988 | -76.41547 | 35920 ft | 433 kts | 293° |
| 2026-04-24 09:48 | 41.76106 | -76.49141 | 35918 ft | 434 kts | 293° |
| 2026-04-24 09:48 | 41.78205 | -76.56742 | 35920 ft | 435 kts | 293° |
| 2026-04-24 09:49 | 41.80286 | -76.64317 | 35926 ft | 435 kts | 293° |
| 2026-04-24 09:49 | 41.82389 | -76.71953 | 35928 ft | 436 kts | 293° |
| 2026-04-24 09:50 | 41.84482 | -76.79546 | 35934 ft | 436 kts | 293° |
| 2026-04-24 09:50 | 41.86582 | -76.87173 | 35923 ft | 435 kts | 293° |
| 2026-04-24 09:51 | 41.88667 | -76.94817 | 35938 ft | 435 kts | 293° |
| 2026-04-24 09:51 | 41.90727 | -77.02465 | 35946 ft | 436 kts | 292° |
| 2026-04-24 09:52 | 41.92789 | -77.10121 | 35962 ft | 436 kts | 293° |
| 2026-04-24 09:52 | 41.94846 | -77.17742 | 35958 ft | 436 kts | 293° |
| 2026-04-24 09:53 | 41.96918 | -77.25431 | 35934 ft | 437 kts | 293° |
| 2026-04-24 09:53 | 41.98991 | -77.33124 | 35952 ft | 437 kts | 293° |
| 2026-04-24 09:54 | 42.01042 | -77.40800 | 35967 ft | 438 kts | 292° |
| 2026-04-24 09:54 | 42.03120 | -77.48525 | 35966 ft | 438 kts | 293° |
| 2026-04-24 09:55 | 42.05201 | -77.56202 | 35963 ft | 439 kts | 293° |
| 2026-04-24 09:55 | 42.07298 | -77.63935 | 35956 ft | 439 kts | 293° |
| 2026-04-24 09:56 | 42.09383 | -77.71642 | 35955 ft | 440 kts | 293° |
| 2026-04-24 09:56 | 42.11476 | -77.79404 | 35960 ft | 440 kts | 293° |
| 2026-04-24 09:57 | 42.13563 | -77.87169 | 35980 ft | 441 kts | 293° |
| 2026-04-24 09:57 | 42.15647 | -77.94947 | 35986 ft | 441 kts | 292° |
| 2026-04-24 09:58 | 42.17722 | -78.02710 | 35972 ft | 441 kts | 293° |
| 2026-04-24 09:58 | 42.19806 | -78.10526 | 35971 ft | 441 kts | 293° |
| 2026-04-24 09:59 | 42.21875 | -78.18294 | 35965 ft | 442 kts | 293° |
| 2026-04-24 09:59 | 42.23949 | -78.26124 | 35965 ft | 442 kts | 292° |
| 2026-04-24 10:00 | 42.25947 | -78.33949 | 35958 ft | 443 kts | 291° |
| 2026-04-24 10:00 | 42.27874 | -78.41859 | 35961 ft | 442 kts | 291° |
| 2026-04-24 10:01 | 42.29799 | -78.49707 | 35964 ft | 442 kts | 291° |
| 2026-04-24 10:01 | 42.31741 | -78.57582 | 35959 ft | 442 kts | 291° |
| 2026-04-24 10:02 | 42.33684 | -78.65463 | 35959 ft | 442 kts | 291° |
| 2026-04-24 10:02 | 42.35626 | -78.73360 | 35944 ft | 441 kts | 291° |
| 2026-04-24 10:03 | 42.37556 | -78.81218 | 35948 ft | 442 kts | 291° |
| 2026-04-24 10:03 | 42.39427 | -78.89189 | 35952 ft | 444 kts | 288° |
| 2026-04-24 10:04 | 42.40451 | -78.97451 | 35937 ft | 450 kts | 279° |
| 2026-04-24 10:04 | 42.40952 | -79.05864 | 35918 ft | 450 kts | 279° |
| 2026-04-24 10:05 | 42.41469 | -79.14339 | 35928 ft | 451 kts | 279° |
| 2026-04-24 10:05 | 42.42010 | -79.22798 | 35932 ft | 451 kts | 279° |
| 2026-04-24 10:06 | 42.42830 | -79.35528 | 35932 ft | 452 kts | 279° |
| 2026-04-24 10:07 | 42.43367 | -79.43984 | 35914 ft | 452 kts | 279° |
| 2026-04-24 10:07 | 42.43899 | -79.52468 | 35926 ft | 452 kts | 279° |
| 2026-04-24 10:08 | 42.44467 | -79.60947 | 35940 ft | 452 kts | 280° |
| 2026-04-24 10:08 | 42.44996 | -79.69454 | 35936 ft | 453 kts | 279° |
| 2026-04-24 10:09 | 42.45496 | -79.77947 | 35942 ft | 453 kts | 279° |
| 2026-04-24 10:09 | 42.45998 | -79.86444 | 35939 ft | 453 kts | 279° |
| 2026-04-24 10:10 | 42.46497 | -79.94937 | 35939 ft | 453 kts | 279° |
| 2026-04-24 10:10 | 42.46988 | -80.03451 | 35943 ft | 453 kts | 279° |
| 2026-04-24 10:11 | 42.47474 | -80.11975 | 35941 ft | 453 kts | 279° |
| 2026-04-24 10:11 | 42.47955 | -80.20513 | 35929 ft | 453 kts | 279° |
| 2026-04-24 10:12 | 42.48426 | -80.28983 | 35942 ft | 454 kts | 279° |
| 2026-04-24 10:12 | 42.48895 | -80.37526 | 35943 ft | 454 kts | 279° |
| 2026-04-24 10:13 | 42.49358 | -80.46078 | 35940 ft | 454 kts | 279° |
| 2026-04-24 10:13 | 42.49812 | -80.54589 | 35925 ft | 455 kts | 278° |
| 2026-04-24 10:14 | 42.50262 | -80.63127 | 35944 ft | 454 kts | 278° |
| 2026-04-24 10:14 | 42.50680 | -80.71692 | 35937 ft | 455 kts | 277° |
| 2026-04-24 10:15 | 42.50943 | -80.80293 | 35938 ft | 456 kts | 277° |
| 2026-04-24 10:15 | 42.51181 | -80.88875 | 35937 ft | 456 kts | 277° |
| 2026-04-24 10:16 | 42.51432 | -80.97459 | 35929 ft | 455 kts | 276° |
| 2026-04-24 10:16 | 42.51685 | -81.06037 | 35935 ft | 455 kts | 276° |
| 2026-04-24 10:17 | 42.51931 | -81.14569 | 35934 ft | 455 kts | 276° |
| 2026-04-24 10:17 | 42.52172 | -81.23169 | 35929 ft | 455 kts | 276° |
| 2026-04-24 10:18 | 42.52765 | -81.31678 | 35922 ft | 451 kts | 282° |
| 2026-04-24 10:18 | 42.53761 | -81.40079 | 35921 ft | 452 kts | 283° |
| 2026-04-24 10:19 | 42.54747 | -81.48512 | 35922 ft | 453 kts | 282° |
| 2026-04-24 10:19 | 42.55706 | -81.56933 | 35916 ft | 454 kts | 282° |
| 2026-04-24 10:20 | 42.56499 | -81.63993 | 35916 ft | 455 kts | 282° |
| 2026-04-24 10:20 | 42.57448 | -81.72502 | 35904 ft | 455 kts | 282° |
| 2026-04-24 10:21 | 42.58394 | -81.81038 | 35911 ft | 456 kts | 282° |
| 2026-04-24 10:21 | 42.59328 | -81.89521 | 35900 ft | 457 kts | 282° |
| 2026-04-24 10:22 | 42.60264 | -81.98080 | 35895 ft | 458 kts | 281° |
| 2026-04-24 10:22 | 42.61189 | -82.06602 | 35894 ft | 458 kts | 281° |
| 2026-04-24 10:23 | 42.62111 | -82.15158 | 35890 ft | 458 kts | 281° |
| 2026-04-24 10:23 | 42.63028 | -82.23728 | 35890 ft | 457 kts | 281° |
| 2026-04-24 10:24 | 42.63938 | -82.32294 | 35887 ft | 457 kts | 281° |
| 2026-04-24 10:24 | 42.64837 | -82.40815 | 35860 ft | 457 kts | 281° |
| 2026-04-24 10:25 | 42.65734 | -82.49371 | 35885 ft | 457 kts | 281° |
| 2026-04-24 10:25 | 42.66622 | -82.57928 | 35865 ft | 458 kts | 281° |
| 2026-04-24 10:26 | 42.67502 | -82.66456 | 35866 ft | 459 kts | 281° |
| 2026-04-24 10:26 | 42.69299 | -82.74628 | 35870 ft | 451 kts | 300° |
| 2026-04-24 10:27 | 42.72997 | -82.81462 | 35863 ft | 448 kts | 316° |
| 2026-04-24 10:27 | 42.77484 | -82.87402 | 35864 ft | 451 kts | 316° |
| 2026-04-24 10:28 | 42.81973 | -82.93338 | 35875 ft | 453 kts | 316° |
| 2026-04-24 10:28 | 42.86465 | -82.99364 | 35870 ft | 454 kts | 316° |
| 2026-04-24 10:29 | 42.90951 | -83.05438 | 35863 ft | 453 kts | 315° |
| 2026-04-24 10:29 | 42.95427 | -83.11524 | 35867 ft | 452 kts | 315° |
| 2026-04-24 10:30 | 42.99859 | -83.17563 | 35847 ft | 452 kts | 315° |
| 2026-04-24 10:30 | 43.04306 | -83.23634 | 35865 ft | 451 kts | 315° |
| 2026-04-24 10:31 | 43.08734 | -83.29691 | 35857 ft | 450 kts | 315° |
| 2026-04-24 10:31 | 43.13156 | -83.35752 | 35857 ft | 449 kts | 315° |
| 2026-04-24 10:32 | 43.17546 | -83.41783 | 35843 ft | 449 kts | 315° |
| 2026-04-24 10:32 | 43.21953 | -83.47850 | 35850 ft | 448 kts | 315° |
| 2026-04-24 10:33 | 43.26366 | -83.53939 | 35851 ft | 448 kts | 315° |
| 2026-04-24 10:33 | 43.30753 | -83.60004 | 35848 ft | 448 kts | 315° |
| 2026-04-24 10:34 | 43.35126 | -83.66065 | 35842 ft | 448 kts | 315° |
| 2026-04-24 10:34 | 43.39533 | -83.72185 | 35840 ft | 448 kts | 315° |
| 2026-04-24 10:35 | 43.43901 | -83.78264 | 35841 ft | 449 kts | 315° |
| 2026-04-24 10:35 | 43.48288 | -83.84383 | 35851 ft | 449 kts | 315° |
| 2026-04-24 10:36 | 43.52665 | -83.90520 | 35844 ft | 448 kts | 315° |
| 2026-04-24 10:36 | 43.57039 | -83.96666 | 35857 ft | 449 kts | 314° |
| 2026-04-24 10:37 | 43.61402 | -84.02792 | 35846 ft | 449 kts | 314° |
| 2026-04-24 10:37 | 43.65792 | -84.08965 | 35844 ft | 449 kts | 314° |
| 2026-04-24 10:38 | 43.70149 | -84.15108 | 35850 ft | 450 kts | 314° |
| 2026-04-24 10:38 | 43.74533 | -84.21303 | 35841 ft | 450 kts | 314° |
| 2026-04-24 10:39 | 43.78888 | -84.27473 | 35842 ft | 449 kts | 314° |
| 2026-04-24 10:39 | 43.83264 | -84.33685 | 35836 ft | 449 kts | 313° |
| 2026-04-24 10:40 | 43.87625 | -84.39891 | 35851 ft | 449 kts | 313° |
| 2026-04-24 10:40 | 43.91986 | -84.46109 | 35859 ft | 449 kts | 313° |
| 2026-04-24 10:41 | 43.96326 | -84.52313 | 35854 ft | 450 kts | 313° |
| 2026-04-24 10:41 | 44.00691 | -84.58566 | 35841 ft | 450 kts | 313° |
| 2026-04-24 10:42 | 44.05048 | -84.64821 | 35841 ft | 450 kts | 313° |
| 2026-04-24 10:42 | 44.09397 | -84.71078 | 35831 ft | 450 kts | 313° |
| 2026-04-24 10:43 | 44.13737 | -84.77338 | 35837 ft | 450 kts | 313° |
| 2026-04-24 10:43 | 44.18076 | -84.83610 | 35818 ft | 451 kts | 313° |
| 2026-04-24 10:44 | 44.22432 | -84.89920 | 35810 ft | 451 kts | 313° |
| 2026-04-24 10:44 | 44.26785 | -84.96241 | 35817 ft | 451 kts | 312° |
| 2026-04-24 10:45 | 44.31102 | -85.02523 | 35821 ft | 451 kts | 312° |
| 2026-04-24 10:45 | 44.35455 | -85.08872 | 35807 ft | 452 kts | 311° |
| 2026-04-24 10:46 | 44.39812 | -85.15242 | 35801 ft | 452 kts | 311° |
| 2026-04-24 10:46 | 44.44147 | -85.21594 | 35797 ft | 453 kts | 311° |
| 2026-04-24 10:47 | 44.48480 | -85.27957 | 35778 ft | 453 kts | 311° |
| 2026-04-24 10:47 | 44.52845 | -85.34381 | 35786 ft | 453 kts | 311° |
| 2026-04-24 10:48 | 44.57194 | -85.40796 | 35778 ft | 453 kts | 311° |
| 2026-04-24 10:48 | 44.61542 | -85.47222 | 35768 ft | 454 kts | 311° |
| 2026-04-24 10:49 | 44.65875 | -85.53606 | 35775 ft | 455 kts | 313° |
| 2026-04-24 10:49 | 44.70758 | -85.59321 | 35787 ft | 458 kts | 320° |
| 2026-04-24 10:50 | 44.75888 | -85.64670 | 35776 ft | 458 kts | 320° |
| 2026-04-24 10:50 | 44.81005 | -85.70025 | 35780 ft | 458 kts | 320° |
| 2026-04-24 10:51 | 44.86093 | -85.75395 | 35768 ft | 459 kts | 320° |
| 2026-04-24 10:51 | 44.91191 | -85.80805 | 35767 ft | 459 kts | 320° |
| 2026-04-24 10:52 | 44.96312 | -85.86256 | 35770 ft | 462 kts | 321° |
| 2026-04-24 10:52 | 45.01477 | -85.91765 | 35777 ft | 466 kts | 321° |
| 2026-04-24 10:53 | 45.06635 | -85.97278 | 35774 ft | 470 kts | 321° |
| 2026-04-24 10:53 | 45.11875 | -86.02890 | 35776 ft | 472 kts | 321° |
| 2026-04-24 10:54 | 45.17121 | -86.08522 | 35778 ft | 473 kts | 321° |
| 2026-04-24 10:54 | 45.22367 | -86.14167 | 35774 ft | 472 kts | 320° |
| 2026-04-24 10:55 | 45.27561 | -86.19769 | 35769 ft | 471 kts | 320° |
| 2026-04-24 10:55 | 45.32781 | -86.25415 | 35785 ft | 470 kts | 320° |
| 2026-04-24 10:56 | 45.37967 | -86.31038 | 35773 ft | 470 kts | 320° |
| 2026-04-24 10:56 | 45.43185 | -86.36707 | 35779 ft | 470 kts | 320° |
| 2026-04-24 10:57 | 45.48386 | -86.42372 | 35779 ft | 471 kts | 320° |
| 2026-04-24 10:57 | 45.53563 | -86.48024 | 35786 ft | 471 kts | 320° |
| 2026-04-24 10:58 | 45.58792 | -86.53747 | 35782 ft | 473 kts | 319° |
| 2026-04-24 10:58 | 45.64025 | -86.59487 | 35779 ft | 475 kts | 319° |
| 2026-04-24 10:59 | 45.69243 | -86.65224 | 35780 ft | 476 kts | 319° |
| 2026-04-24 10:59 | 45.74520 | -86.71041 | 35768 ft | 478 kts | 319° |
| 2026-04-24 11:00 | 45.79764 | -86.76835 | 35761 ft | 478 kts | 319° |
| 2026-04-24 11:00 | 45.85044 | -86.82684 | 35767 ft | 478 kts | 319° |
| 2026-04-24 11:01 | 45.90280 | -86.88495 | 35764 ft | 478 kts | 319° |
| 2026-04-24 11:01 | 45.94680 | -86.93393 | 35762 ft | 478 kts | 319° |
| 2026-04-24 11:02 | 45.99915 | -86.99232 | 35757 ft | 478 kts | 319° |
| 2026-04-24 11:02 | 46.05166 | -87.05104 | 35754 ft | 478 kts | 319° |
| 2026-04-24 11:03 | 46.10418 | -87.10991 | 35753 ft | 477 kts | 319° |
| 2026-04-24 11:03 | 46.15670 | -87.16891 | 35752 ft | 477 kts | 319° |
| 2026-04-24 11:04 | 46.20912 | -87.22795 | 35744 ft | 477 kts | 318° |
| 2026-04-24 11:04 | 46.26128 | -87.28683 | 35731 ft | 478 kts | 318° |
| 2026-04-24 11:05 | 46.31377 | -87.34623 | 35732 ft | 478 kts | 317° |
| 2026-04-24 11:05 | 46.35752 | -87.41620 | 35737 ft | 468 kts | 297° |
| 2026-04-24 11:06 | 46.38241 | -87.50185 | 35737 ft | 459 kts | 283° |
| 2026-04-24 11:06 | 46.40032 | -87.59095 | 35732 ft | 461 kts | 283° |
| 2026-04-24 11:07 | 46.42757 | -87.72535 | 35723 ft | 465 kts | 283° |
| 2026-04-24 11:07 | 46.44619 | -87.81545 | 35713 ft | 467 kts | 283° |
| 2026-04-24 11:08 | 46.46491 | -87.90586 | 35714 ft | 467 kts | 283° |
| 2026-04-24 11:08 | 46.48344 | -87.99575 | 35704 ft | 467 kts | 282° |
| 2026-04-24 11:09 | 46.50203 | -88.08641 | 35688 ft | 469 kts | 282° |
| 2026-04-24 11:09 | 46.52058 | -88.17735 | 35683 ft | 470 kts | 282° |
| 2026-04-24 11:10 | 46.53902 | -88.26814 | 35672 ft | 470 kts | 282° |
| 2026-04-24 11:10 | 46.55747 | -88.35942 | 35675 ft | 471 kts | 282° |
| 2026-04-24 11:11 | 46.57581 | -88.45046 | 35660 ft | 472 kts | 281° |
| 2026-04-24 11:11 | 46.59417 | -88.54217 | 35656 ft | 472 kts | 281° |
| 2026-04-24 11:12 | 46.61244 | -88.63383 | 35638 ft | 471 kts | 281° |
| 2026-04-24 11:12 | 46.63057 | -88.72518 | 35626 ft | 471 kts | 281° |
| 2026-04-24 11:13 | 46.64869 | -88.81687 | 35641 ft | 470 kts | 279° |
| 2026-04-24 11:13 | 46.66674 | -88.90870 | 35620 ft | 470 kts | 279° |
| 2026-04-24 11:14 | 46.68453 | -88.99965 | 35613 ft | 469 kts | 279° |
| 2026-04-24 11:14 | 46.70232 | -89.09098 | 35614 ft | 468 kts | 279° |
| 2026-04-24 11:15 | 46.72000 | -89.18221 | 35611 ft | 467 kts | 279° |
| 2026-04-24 11:15 | 46.73760 | -89.27346 | 35624 ft | 466 kts | 278° |
| 2026-04-24 11:16 | 46.75494 | -89.36376 | 35645 ft | 464 kts | 278° |
| 2026-04-24 11:16 | 46.77227 | -89.45446 | 35637 ft | 463 kts | 278° |
| 2026-04-24 11:17 | 46.78944 | -89.54479 | 35658 ft | 462 kts | 278° |
| 2026-04-24 11:17 | 46.80654 | -89.63520 | 35660 ft | 462 kts | 278° |
| 2026-04-24 11:18 | 46.82356 | -89.72557 | 35671 ft | 462 kts | 278° |
| 2026-04-24 11:18 | 46.84052 | -89.81612 | 35684 ft | 462 kts | 278° |
| 2026-04-24 11:19 | 46.85736 | -89.90645 | 35680 ft | 463 kts | 278° |
| 2026-04-24 11:19 | 46.87427 | -89.99752 | 35716 ft | 464 kts | 277° |
| 2026-04-24 11:20 | 46.89103 | -90.08826 | 35695 ft | 464 kts | 277° |
| 2026-04-24 11:20 | 46.90782 | -90.17957 | 35693 ft | 464 kts | 277° |
| 2026-04-24 11:21 | 46.92452 | -90.27085 | 35695 ft | 463 kts | 277° |
| 2026-04-24 11:21 | 46.94111 | -90.36201 | 35698 ft | 462 kts | 277° |
| 2026-04-24 11:22 | 46.95757 | -90.45288 | 35708 ft | 463 kts | 276° |
| 2026-04-24 11:22 | 46.97388 | -90.54347 | 35710 ft | 463 kts | 276° |
| 2026-04-24 11:23 | 46.99030 | -90.63511 | 35706 ft | 464 kts | 276° |
| 2026-04-24 11:23 | 47.00656 | -90.72628 | 35707 ft | 464 kts | 276° |
| 2026-04-24 11:24 | 47.02283 | -90.81797 | 35709 ft | 465 kts | 276° |
| 2026-04-24 11:24 | 47.03912 | -90.91030 | 35727 ft | 468 kts | 275° |
| 2026-04-24 11:25 | 47.05540 | -91.00307 | 35713 ft | 471 kts | 275° |
| 2026-04-24 11:25 | 47.07161 | -91.09582 | 35724 ft | 472 kts | 275° |
| 2026-04-24 11:26 | 47.08787 | -91.18929 | 35732 ft | 473 kts | 275° |
| 2026-04-24 11:26 | 47.10407 | -91.28298 | 35739 ft | 474 kts | 275° |
| 2026-04-24 11:27 | 47.12023 | -91.37691 | 35736 ft | 473 kts | 275° |
| 2026-04-24 11:27 | 47.13629 | -91.47071 | 35723 ft | 473 kts | 275° |
| 2026-04-24 11:28 | 47.15216 | -91.56396 | 35725 ft | 472 kts | 274° |
| 2026-04-24 11:28 | 47.16800 | -91.65760 | 35794 ft | 471 kts | 274° |
| 2026-04-24 11:29 | 47.18378 | -91.75146 | 35745 ft | 473 kts | 274° |
| 2026-04-24 11:29 | 47.19944 | -91.84504 | 35759 ft | 474 kts | 274° |
| 2026-04-24 11:30 | 47.21513 | -91.93928 | 35748 ft | 475 kts | 274° |
| 2026-04-24 11:30 | 47.23077 | -92.03374 | 35768 ft | 475 kts | 274° |
| 2026-04-24 11:31 | 47.24638 | -92.12860 | 35782 ft | 478 kts | 274° |
| 2026-04-24 11:31 | 47.26189 | -92.22342 | 35788 ft | 480 kts | 274° |
| 2026-04-24 11:32 | 47.27748 | -92.31915 | 35796 ft | 481 kts | 274° |
| 2026-04-24 11:32 | 47.29305 | -92.41523 | 35799 ft | 481 kts | 274° |
| 2026-04-24 11:33 | 47.30850 | -92.51125 | 35847 ft | 482 kts | 274° |
| 2026-04-24 11:33 | 47.32395 | -92.60784 | 35812 ft | 484 kts | 274° |
| 2026-04-24 11:34 | 47.33924 | -92.70394 | 35802 ft | 484 kts | 274° |
| 2026-04-24 11:34 | 47.35458 | -92.80088 | 35797 ft | 484 kts | 274° |
| 2026-04-24 11:35 | 47.36975 | -92.89742 | 35777 ft | 485 kts | 274° |
| 2026-04-24 11:35 | 47.38503 | -92.99523 | 35783 ft | 487 kts | 274° |
| 2026-04-24 11:36 | 47.40010 | -93.09226 | 35785 ft | 488 kts | 274° |
| 2026-04-24 11:36 | 47.41519 | -93.18999 | 35793 ft | 488 kts | 274° |
| 2026-04-24 11:37 | 47.43026 | -93.28814 | 35818 ft | 488 kts | 274° |
| 2026-04-24 11:37 | 47.44516 | -93.38589 | 35839 ft | 491 kts | 274° |
| 2026-04-24 11:38 | 47.46011 | -93.48474 | 35834 ft | 494 kts | 274° |
| 2026-04-24 11:38 | 47.47500 | -93.58353 | 35823 ft | 496 kts | 274° |
| 2026-04-24 11:39 | 47.48996 | -93.68341 | 35832 ft | 497 kts | 274° |
| 2026-04-24 11:39 | 47.50487 | -93.78357 | 35837 ft | 497 kts | 274° |
| 2026-04-24 11:40 | 47.51959 | -93.88310 | 35841 ft | 497 kts | 274° |
| 2026-04-24 11:40 | 47.53424 | -93.98284 | 35844 ft | 496 kts | 274° |
| 2026-04-24 11:41 | 47.54883 | -94.08281 | 35837 ft | 495 kts | 273° |
| 2026-04-24 11:41 | 47.56086 | -94.16579 | 35846 ft | 494 kts | 273° |
| 2026-04-24 11:42 | 47.57522 | -94.26556 | 35848 ft | 496 kts | 274° |
| 2026-04-24 11:42 | 47.58956 | -94.36582 | 35852 ft | 497 kts | 274° |
| 2026-04-24 11:43 | 47.60379 | -94.46590 | 35849 ft | 498 kts | 274° |
| 2026-04-24 11:43 | 47.61800 | -94.56642 | 35854 ft | 499 kts | 274° |
| 2026-04-24 11:44 | 47.63214 | -94.66734 | 35857 ft | 500 kts | 275° |
| 2026-04-24 11:44 | 47.64618 | -94.76790 | 35858 ft | 499 kts | 275° |
| 2026-04-24 11:45 | 47.66016 | -94.86871 | 35853 ft | 499 kts | 275° |
| 2026-04-24 11:45 | 47.67405 | -94.96973 | 35852 ft | 498 kts | 274° |
| 2026-04-24 11:46 | 47.68773 | -95.06996 | 35895 ft | 497 kts | 275° |
| 2026-04-24 11:46 | 47.70136 | -95.17057 | 35862 ft | 497 kts | 275° |
| 2026-04-24 11:47 | 47.71491 | -95.27114 | 35855 ft | 496 kts | 275° |
| 2026-04-24 11:47 | 47.72839 | -95.37189 | 35864 ft | 495 kts | 275° |
| 2026-04-24 11:48 | 47.74166 | -95.47187 | 35861 ft | 495 kts | 275° |
| 2026-04-24 11:48 | 47.75489 | -95.57231 | 35860 ft | 495 kts | 275° |
| 2026-04-24 11:49 | 47.76806 | -95.67286 | 35862 ft | 494 kts | 275° |
| 2026-04-24 11:49 | 47.78103 | -95.77261 | 35862 ft | 493 kts | 275° |
| 2026-04-24 11:50 | 47.79397 | -95.87289 | 35860 ft | 493 kts | 275° |
| 2026-04-24 11:50 | 47.80674 | -95.97268 | 35869 ft | 493 kts | 275° |
| 2026-04-24 11:51 | 47.81952 | -96.07316 | 35858 ft | 493 kts | 275° |
| 2026-04-24 11:51 | 47.83221 | -96.17363 | 35852 ft | 493 kts | 275° |
| 2026-04-24 11:52 | 47.84472 | -96.27343 | 35864 ft | 493 kts | 275° |
| 2026-04-24 11:52 | 47.85723 | -96.37406 | 35891 ft | 493 kts | 275° |
| 2026-04-24 11:53 | 47.86957 | -96.47407 | 35862 ft | 494 kts | 275° |
| 2026-04-24 11:53 | 47.88194 | -96.57497 | 35841 ft | 494 kts | 275° |
| 2026-04-24 11:54 | 47.89419 | -96.67567 | 35842 ft | 494 kts | 275° |
| 2026-04-24 11:54 | 47.90637 | -96.77656 | 35844 ft | 493 kts | 275° |
| 2026-04-24 11:55 | 47.91840 | -96.87699 | 35854 ft | 493 kts | 275° |
| 2026-04-24 11:55 | 47.93037 | -96.97758 | 35839 ft | 492 kts | 275° |
| 2026-04-24 11:56 | 47.94221 | -97.07769 | 35841 ft | 491 kts | 275° |
| 2026-04-24 11:56 | 47.95382 | -97.17822 | 35848 ft | 489 kts | 273° |
| 2026-04-24 11:57 | 47.95903 | -97.27887 | 35838 ft | 485 kts | 268° |
| 2026-04-24 11:57 | 47.96192 | -97.37874 | 35830 ft | 484 kts | 268° |
| 2026-04-24 11:58 | 47.96491 | -97.47919 | 35824 ft | 484 kts | 268° |
| 2026-04-24 11:58 | 47.96811 | -97.57947 | 35858 ft | 484 kts | 268° |
| 2026-04-24 11:59 | 47.97135 | -97.67985 | 35891 ft | 484 kts | 268° |
| 2026-04-24 11:59 | 47.97451 | -97.78013 | 35863 ft | 484 kts | 268° |
| 2026-04-24 12:00 | 47.97754 | -97.87985 | 35865 ft | 483 kts | 268° |
| 2026-04-24 12:00 | 47.98051 | -97.98026 | 35866 ft | 483 kts | 268° |
| 2026-04-24 12:01 | 47.98339 | -98.08075 | 35870 ft | 483 kts | 268° |
| 2026-04-24 12:01 | 47.98617 | -98.18095 | 35871 ft | 483 kts | 268° |
| 2026-04-24 12:02 | 47.98884 | -98.28052 | 35872 ft | 483 kts | 268° |
| 2026-04-24 12:02 | 47.99146 | -98.38115 | 35871 ft | 483 kts | 267° |
| 2026-04-24 12:03 | 47.99397 | -98.48095 | 35867 ft | 483 kts | 267° |
| 2026-04-24 12:03 | 47.99640 | -98.58121 | 35859 ft | 483 kts | 268° |
| 2026-04-24 12:04 | 47.99874 | -98.68104 | 35863 ft | 483 kts | 267° |
| 2026-04-24 12:04 | 48.00100 | -98.78122 | 35844 ft | 482 kts | 267° |
| 2026-04-24 12:05 | 48.00317 | -98.88140 | 35842 ft | 481 kts | 267° |
| 2026-04-24 12:05 | 48.00525 | -98.98151 | 36186 ft | 482 kts | 267° |
| 2026-04-24 12:06 | 48.00625 | -99.03106 | 36503 ft | 481 kts | 267° |
| 2026-04-24 12:06 | 48.00724 | -99.08113 | 36791 ft | 480 kts | 267° |
| 2026-04-24 12:06 | 48.00820 | -99.13120 | 37029 ft | 481 kts | 267° |
| 2026-04-24 12:06 | 48.00914 | -99.18129 | 37238 ft | 482 kts | 267° |
| 2026-04-24 12:07 | 48.01005 | -99.23130 | 37450 ft | 483 kts | 267° |
| 2026-04-24 12:07 | 48.01094 | -99.28094 | 37664 ft | 483 kts | 267° |
| 2026-04-24 12:07 | 48.01182 | -99.33108 | 37802 ft | 484 kts | 267° |
| 2026-04-24 12:07 | 48.01268 | -99.38151 | 37888 ft | 486 kts | 267° |
| 2026-04-24 12:08 | 48.01435 | -99.48242 | 37881 ft | 483 kts | 267° |
| 2026-04-24 12:08 | 48.01592 | -99.58193 | 37884 ft | 479 kts | 267° |
| 2026-04-24 12:09 | 48.01739 | -99.68170 | 37888 ft | 478 kts | 266° |
| 2026-04-24 12:09 | 48.01874 | -99.78049 | 37891 ft | 478 kts | 266° |
| 2026-04-24 12:10 | 48.02002 | -99.87978 | 37896 ft | 479 kts | 267° |
| 2026-04-24 12:11 | 48.02180 | -100.02950 | 37891 ft | 481 kts | 267° |
| 2026-04-24 12:11 | 48.02289 | -100.12920 | 37891 ft | 482 kts | 266° |
| 2026-04-24 12:12 | 48.02389 | -100.22952 | 37890 ft | 483 kts | 266° |
| 2026-04-24 12:12 | 48.02480 | -100.33013 | 37885 ft | 484 kts | 267° |
| 2026-04-24 12:13 | 48.02563 | -100.43022 | 37882 ft | 485 kts | 267° |
| 2026-04-24 12:13 | 48.02638 | -100.53129 | 37877 ft | 486 kts | 267° |
| 2026-04-24 12:14 | 48.02704 | -100.63234 | 37877 ft | 486 kts | 267° |
| 2026-04-24 12:14 | 48.02761 | -100.73331 | 37889 ft | 486 kts | 267° |
| 2026-04-24 12:15 | 48.02810 | -100.83424 | 37881 ft | 485 kts | 267° |
| 2026-04-24 12:15 | 48.02851 | -100.93464 | 37869 ft | 484 kts | 267° |
| 2026-04-24 12:16 | 48.02885 | -101.03515 | 37870 ft | 483 kts | 267° |
| 2026-04-24 12:16 | 48.02820 | -101.13579 | 37894 ft | 481 kts | 262° |
| 2026-04-24 12:17 | 48.01659 | -101.23346 | 37885 ft | 476 kts | 252° |
| 2026-04-24 12:17 | 47.99487 | -101.32606 | 37867 ft | 473 kts | 246° |
| 2026-04-24 12:18 | 47.97079 | -101.41734 | 37867 ft | 472 kts | 246° |
| 2026-04-24 12:18 | 47.94691 | -101.50810 | 37879 ft | 472 kts | 246° |
| 2026-04-24 12:19 | 47.92310 | -101.59947 | 37888 ft | 472 kts | 247° |
| 2026-04-24 12:19 | 47.89933 | -101.69088 | 37881 ft | 472 kts | 247° |
| 2026-04-24 12:20 | 47.87554 | -101.78210 | 37885 ft | 472 kts | 246° |
| 2026-04-24 12:20 | 47.85159 | -101.87351 | 37899 ft | 472 kts | 246° |
| 2026-04-24 12:21 | 47.82766 | -101.96443 | 37910 ft | 472 kts | 247° |
| 2026-04-24 12:21 | 47.80366 | -102.05530 | 37898 ft | 473 kts | 246° |
| 2026-04-24 12:22 | 47.77964 | -102.14587 | 37899 ft | 473 kts | 246° |
| 2026-04-24 12:22 | 47.75542 | -102.23684 | 37899 ft | 472 kts | 246° |
| 2026-04-24 12:23 | 47.73112 | -102.32773 | 37892 ft | 472 kts | 246° |
| 2026-04-24 12:23 | 47.70678 | -102.41847 | 37907 ft | 472 kts | 246° |
| 2026-04-24 12:24 | 47.68249 | -102.50863 | 37907 ft | 472 kts | 246° |
| 2026-04-24 12:24 | 47.65800 | -102.59921 | 37897 ft | 472 kts | 246° |
| 2026-04-24 12:25 | 47.63771 | -102.67398 | 37928 ft | 472 kts | 246° |
| 2026-04-24 12:25 | 47.61308 | -102.76444 | 37915 ft | 472 kts | 246° |
| 2026-04-24 12:26 | 47.58833 | -102.85496 | 37908 ft | 473 kts | 246° |
| 2026-04-24 12:26 | 47.56358 | -102.94517 | 37917 ft | 473 kts | 246° |
| 2026-04-24 12:27 | 47.53890 | -103.03476 | 37924 ft | 473 kts | 246° |
| 2026-04-24 12:27 | 47.51392 | -103.12512 | 37924 ft | 473 kts | 246° |
| 2026-04-24 12:28 | 47.48893 | -103.21518 | 37923 ft | 473 kts | 246° |
| 2026-04-24 12:28 | 47.46393 | -103.30490 | 37928 ft | 473 kts | 246° |
| 2026-04-24 12:29 | 47.43878 | -103.39484 | 37931 ft | 473 kts | 246° |
| 2026-04-24 12:29 | 47.41367 | -103.48434 | 37946 ft | 472 kts | 246° |
| 2026-04-24 12:30 | 47.38842 | -103.57397 | 37938 ft | 472 kts | 246° |
| 2026-04-24 12:30 | 47.36314 | -103.66334 | 37946 ft | 471 kts | 246° |
| 2026-04-24 12:31 | 47.33785 | -103.75245 | 37954 ft | 470 kts | 246° |
| 2026-04-24 12:31 | 47.31265 | -103.84093 | 37958 ft | 470 kts | 246° |
| 2026-04-24 12:32 | 47.28725 | -103.92975 | 37953 ft | 471 kts | 246° |
| 2026-04-24 12:32 | 47.26173 | -104.01868 | 37957 ft | 471 kts | 246° |
| 2026-04-24 12:33 | 47.23612 | -104.10762 | 37957 ft | 472 kts | 246° |
| 2026-04-24 12:33 | 47.21040 | -104.19661 | 37969 ft | 472 kts | 246° |
| 2026-04-24 12:34 | 47.18476 | -104.28499 | 37957 ft | 472 kts | 246° |
| 2026-04-24 12:34 | 47.15883 | -104.37406 | 37950 ft | 472 kts | 246° |
| 2026-04-24 12:35 | 47.13302 | -104.46237 | 37938 ft | 472 kts | 246° |
| 2026-04-24 12:35 | 47.10707 | -104.55087 | 37967 ft | 472 kts | 246° |
| 2026-04-24 12:36 | 47.08098 | -104.63951 | 37963 ft | 472 kts | 246° |
| 2026-04-24 12:36 | 47.05499 | -104.72750 | 37958 ft | 471 kts | 246° |
| 2026-04-24 12:37 | 47.02888 | -104.81559 | 37952 ft | 471 kts | 246° |
| 2026-04-24 12:37 | 47.00273 | -104.90346 | 37955 ft | 470 kts | 246° |
| 2026-04-24 12:38 | 46.97663 | -104.99087 | 37959 ft | 469 kts | 246° |
| 2026-04-24 12:38 | 46.95035 | -105.07859 | 37969 ft | 469 kts | 246° |
| 2026-04-24 12:39 | 46.89767 | -105.25351 | 37968 ft | 470 kts | 246° |
| 2026-04-24 12:40 | 46.87132 | -105.34052 | 37975 ft | 470 kts | 246° |
| 2026-04-24 12:40 | 46.84472 | -105.42807 | 37970 ft | 470 kts | 246° |
| 2026-04-24 12:41 | 46.81822 | -105.51502 | 37975 ft | 470 kts | 246° |
| 2026-04-24 12:41 | 46.79146 | -105.60248 | 37974 ft | 471 kts | 246° |
| 2026-04-24 12:42 | 46.76466 | -105.68975 | 37968 ft | 471 kts | 246° |
| 2026-04-24 12:42 | 46.73792 | -105.77655 | 37982 ft | 471 kts | 246° |
| 2026-04-24 12:43 | 46.71097 | -105.86372 | 37983 ft | 471 kts | 246° |
| 2026-04-24 12:43 | 46.68390 | -105.95100 | 37981 ft | 471 kts | 246° |
| 2026-04-24 12:44 | 46.65698 | -106.03747 | 37994 ft | 470 kts | 246° |
| 2026-04-24 12:44 | 46.62997 | -106.12396 | 37995 ft | 469 kts | 246° |
| 2026-04-24 12:45 | 46.60291 | -106.21028 | 37995 ft | 468 kts | 246° |
| 2026-04-24 12:45 | 46.57592 | -106.29609 | 37996 ft | 468 kts | 246° |
| 2026-04-24 12:46 | 46.54880 | -106.38205 | 38005 ft | 467 kts | 246° |
| 2026-04-24 12:46 | 46.52155 | -106.46813 | 38011 ft | 467 kts | 246° |
| 2026-04-24 12:47 | 46.49446 | -106.55339 | 38011 ft | 467 kts | 246° |
| 2026-04-24 12:47 | 46.46715 | -106.63907 | 38017 ft | 467 kts | 246° |
| 2026-04-24 12:48 | 46.43990 | -106.72430 | 38012 ft | 467 kts | 245° |
| 2026-04-24 12:48 | 46.41236 | -106.81012 | 38023 ft | 468 kts | 245° |
| 2026-04-24 12:49 | 46.38499 | -106.89513 | 38021 ft | 468 kts | 245° |
| 2026-04-24 12:49 | 46.35740 | -106.98055 | 38025 ft | 468 kts | 245° |
| 2026-04-24 12:50 | 46.32962 | -107.06628 | 38031 ft | 468 kts | 245° |
| 2026-04-24 12:50 | 46.30198 | -107.15128 | 38027 ft | 469 kts | 245° |
| 2026-04-24 12:51 | 46.27413 | -107.23667 | 38044 ft | 469 kts | 245° |
| 2026-04-24 12:51 | 46.24620 | -107.32202 | 38038 ft | 468 kts | 245° |
| 2026-04-24 12:52 | 46.21846 | -107.40651 | 38035 ft | 468 kts | 245° |
| 2026-04-24 12:52 | 46.19047 | -107.49146 | 38037 ft | 468 kts | 245° |
| 2026-04-24 12:53 | 46.16245 | -107.57624 | 38044 ft | 468 kts | 245° |
| 2026-04-24 12:53 | 46.13446 | -107.66066 | 38055 ft | 468 kts | 245° |
| 2026-04-24 12:54 | 46.10623 | -107.74554 | 38055 ft | 468 kts | 245° |
| 2026-04-24 12:54 | 46.07808 | -107.82988 | 38054 ft | 468 kts | 245° |
| 2026-04-24 12:55 | 46.04967 | -107.91474 | 38062 ft | 469 kts | 245° |
| 2026-04-24 12:55 | 46.02126 | -107.99935 | 38062 ft | 470 kts | 245° |
| 2026-04-24 12:56 | 45.99288 | -108.08360 | 38056 ft | 470 kts | 245° |
| 2026-04-24 12:56 | 45.96413 | -108.16861 | 38037 ft | 471 kts | 245° |
| 2026-04-24 12:57 | 45.93556 | -108.25293 | 38031 ft | 472 kts | 245° |
| 2026-04-24 12:57 | 45.90675 | -108.33765 | 38016 ft | 473 kts | 245° |
| 2026-04-24 12:58 | 45.87779 | -108.42260 | 37995 ft | 473 kts | 245° |
| 2026-04-24 12:58 | 45.84889 | -108.50713 | 37997 ft | 473 kts | 245° |
| 2026-04-24 12:59 | 45.81747 | -108.59017 | 37997 ft | 474 kts | 235° |
| 2026-04-24 12:59 | 45.77311 | -108.66019 | 38004 ft | 477 kts | 223° |
| 2026-04-24 13:00 | 45.71926 | -108.71651 | 38015 ft | 479 kts | 217° |
| 2026-04-24 13:00 | 45.66446 | -108.77007 | 38046 ft | 479 kts | 217° |
| 2026-04-24 13:01 | 45.60947 | -108.82427 | 38050 ft | 480 kts | 217° |
| 2026-04-24 13:01 | 45.55470 | -108.87880 | 38038 ft | 479 kts | 217° |
| 2026-04-24 13:02 | 45.50050 | -108.93289 | 38035 ft | 478 kts | 217° |
| 2026-04-24 13:02 | 45.44600 | -108.98716 | 38030 ft | 477 kts | 217° |
| 2026-04-24 13:03 | 45.39135 | -109.04141 | 38029 ft | 477 kts | 217° |
| 2026-04-24 13:03 | 45.33673 | -109.09549 | 38022 ft | 477 kts | 217° |
| 2026-04-24 13:04 | 45.28257 | -109.14898 | 38035 ft | 477 kts | 217° |
| 2026-04-24 13:04 | 45.22794 | -109.20282 | 38044 ft | 477 kts | 217° |
| 2026-04-24 13:05 | 45.17329 | -109.25654 | 38028 ft | 477 kts | 217° |
| 2026-04-24 13:05 | 45.11852 | -109.31025 | 38027 ft | 477 kts | 217° |
| 2026-04-24 13:06 | 45.06414 | -109.36344 | 38049 ft | 477 kts | 217° |
| 2026-04-24 13:06 | 45.00946 | -109.41681 | 38034 ft | 477 kts | 217° |
| 2026-04-24 13:07 | 44.95489 | -109.46996 | 38017 ft | 478 kts | 217° |
| 2026-04-24 13:07 | 44.90017 | -109.52311 | 38035 ft | 479 kts | 217° |
| 2026-04-24 13:08 | 44.85451 | -109.56738 | 37995 ft | 480 kts | 217° |
| 2026-04-24 13:08 | 44.79042 | -109.62935 | 38017 ft | 481 kts | 217° |
| 2026-04-24 13:09 | 44.71678 | -109.70035 | 37990 ft | 482 kts | 218° |
| 2026-04-24 13:09 | 44.66134 | -109.75365 | 37977 ft | 482 kts | 218° |
| 2026-04-24 13:10 | 44.60585 | -109.80691 | 37965 ft | 483 kts | 218° |
| 2026-04-24 13:10 | 44.55022 | -109.86015 | 37959 ft | 483 kts | 218° |
| 2026-04-24 13:11 | 44.49458 | -109.91328 | 37963 ft | 483 kts | 217° |
| 2026-04-24 13:11 | 44.43931 | -109.96589 | 37950 ft | 482 kts | 218° |
| 2026-04-24 13:12 | 44.38391 | -110.01851 | 37942 ft | 479 kts | 218° |
| 2026-04-24 13:12 | 44.32896 | -110.07063 | 37952 ft | 476 kts | 218° |
| 2026-04-24 13:13 | 44.27408 | -110.12250 | 37950 ft | 474 kts | 218° |
| 2026-04-24 13:13 | 44.21990 | -110.17365 | 37952 ft | 472 kts | 218° |
| 2026-04-24 13:14 | 44.16536 | -110.22485 | 37947 ft | 471 kts | 218° |
| 2026-04-24 13:14 | 44.11108 | -110.27580 | 37943 ft | 470 kts | 218° |
| 2026-04-24 13:15 | 44.05686 | -110.32665 | 37941 ft | 469 kts | 218° |
| 2026-04-24 13:15 | 44.00273 | -110.37733 | 37944 ft | 469 kts | 218° |
| 2026-04-24 13:16 | 43.94857 | -110.42790 | 37948 ft | 469 kts | 218° |
| 2026-04-24 13:16 | 43.89452 | -110.47826 | 37943 ft | 470 kts | 218° |
| 2026-04-24 13:17 | 43.84013 | -110.52881 | 37953 ft | 470 kts | 218° |
| 2026-04-24 13:17 | 43.78598 | -110.57905 | 37946 ft | 469 kts | 218° |
| 2026-04-24 13:18 | 43.73162 | -110.62939 | 37917 ft | 469 kts | 218° |
| 2026-04-24 13:18 | 43.67737 | -110.67959 | 37912 ft | 469 kts | 218° |
| 2026-04-24 13:19 | 43.62338 | -110.72939 | 37903 ft | 468 kts | 219° |
| 2026-04-24 13:19 | 43.57358 | -110.78585 | 37964 ft | 461 kts | 226° |
| 2026-04-24 13:20 | 43.52669 | -110.84612 | 37958 ft | 460 kts | 227° |
| 2026-04-24 13:20 | 43.47987 | -110.90577 | 37958 ft | 461 kts | 226° |
| 2026-04-24 13:21 | 43.43209 | -110.96507 | 37961 ft | 462 kts | 225° |
| 2026-04-24 13:21 | 43.38411 | -111.02408 | 37943 ft | 462 kts | 226° |
| 2026-04-24 13:22 | 43.33637 | -111.08274 | 37928 ft | 462 kts | 226° |
| 2026-04-24 13:22 | 43.28820 | -111.14174 | 37928 ft | 463 kts | 225° |
| 2026-04-24 13:23 | 43.24002 | -111.20054 | 37942 ft | 463 kts | 225° |
| 2026-04-24 13:23 | 43.19215 | -111.25906 | 37923 ft | 464 kts | 225° |
| 2026-04-24 13:24 | 43.14387 | -111.31797 | 37929 ft | 463 kts | 226° |
| 2026-04-24 13:24 | 43.09565 | -111.37666 | 37918 ft | 462 kts | 226° |
| 2026-04-24 13:25 | 43.04752 | -111.43511 | 37912 ft | 462 kts | 226° |
| 2026-04-24 13:25 | 42.99967 | -111.49310 | 37895 ft | 461 kts | 226° |
| 2026-04-24 13:26 | 42.95145 | -111.55142 | 37895 ft | 461 kts | 226° |
| 2026-04-24 13:26 | 42.90330 | -111.60955 | 37866 ft | 461 kts | 226° |
| 2026-04-24 13:27 | 42.85527 | -111.66743 | 37889 ft | 461 kts | 226° |
| 2026-04-24 13:27 | 42.80741 | -111.72505 | 37895 ft | 460 kts | 226° |
| 2026-04-24 13:28 | 42.75945 | -111.78277 | 37891 ft | 460 kts | 226° |
| 2026-04-24 13:28 | 42.71054 | -111.83885 | 37897 ft | 466 kts | 217° |
| 2026-04-24 13:29 | 42.68098 | -111.85840 | 37895 ft | 478 kts | 202° |
| 2026-04-24 13:29 | 42.64795 | -111.86725 | 37876 ft | 485 kts | 191° |
| 2026-04-24 13:29 | 42.58075 | -111.87654 | 37883 ft | 486 kts | 191° |
| 2026-04-24 13:30 | 42.51376 | -111.88673 | 37883 ft | 488 kts | 191° |
| 2026-04-24 13:30 | 42.44605 | -111.89773 | 37380 ft | 497 kts | 192° |
| 2026-04-24 13:31 | 42.41152 | -111.90365 | 36783 ft | 497 kts | 193° |
| 2026-04-24 13:31 | 42.37732 | -111.90955 | 35986 ft | 495 kts | 193° |
| 2026-04-24 13:31 | 42.34331 | -111.91542 | 35197 ft | 492 kts | 194° |
| 2026-04-24 13:31 | 42.30935 | -111.92128 | 34448 ft | 488 kts | 194° |
| 2026-04-24 13:32 | 42.27554 | -111.92711 | 33720 ft | 484 kts | 195° |
| 2026-04-24 13:32 | 42.24264 | -111.93272 | 32869 ft | 479 kts | 195° |
| 2026-04-24 13:32 | 42.20929 | -111.93846 | 31570 ft | 486 kts | 195° |
| 2026-04-24 13:32 | 42.17558 | -111.94427 | 30552 ft | 487 kts | 195° |
| 2026-04-24 13:33 | 42.14202 | -111.94999 | 29864 ft | 482 kts | 195° |
| 2026-04-24 13:33 | 42.10888 | -111.95557 | 29081 ft | 477 kts | 195° |
| 2026-04-24 13:33 | 42.07616 | -111.96107 | 28411 ft | 470 kts | 195° |
| 2026-04-24 13:33 | 42.04432 | -111.96643 | 27768 ft | 464 kts | 195° |
| 2026-04-24 13:34 | 42.01248 | -111.97182 | 27151 ft | 457 kts | 195° |
| 2026-04-24 13:34 | 41.98076 | -111.97719 | 26503 ft | 452 kts | 195° |
| 2026-04-24 13:34 | 41.94973 | -111.98249 | 25904 ft | 447 kts | 195° |
| 2026-04-24 13:34 | 41.91901 | -111.98776 | 25284 ft | 443 kts | 195° |
| 2026-04-24 13:35 | 41.88892 | -111.99294 | 24688 ft | 440 kts | 195° |
| 2026-04-24 13:35 | 41.85863 | -111.99820 | 24057 ft | 437 kts | 195° |
| 2026-04-24 13:35 | 41.82855 | -112.00333 | 23469 ft | 434 kts | 195° |
| 2026-04-24 13:35 | 41.79864 | -112.00831 | 22789 ft | 431 kts | 194° |
| 2026-04-24 13:36 | 41.76897 | -112.01320 | 22169 ft | 427 kts | 194° |
| 2026-04-24 13:36 | 41.73943 | -112.01771 | 21550 ft | 423 kts | 194° |
| 2026-04-24 13:36 | 41.71035 | -112.02211 | 20969 ft | 418 kts | 194° |
| 2026-04-24 13:36 | 41.68186 | -112.02656 | 20397 ft | 412 kts | 193° |
| 2026-04-24 13:37 | 41.65348 | -112.03098 | 19869 ft | 408 kts | 194° |
| 2026-04-24 13:37 | 41.62532 | -112.03535 | 19280 ft | 407 kts | 194° |
| 2026-04-24 13:37 | 41.59719 | -112.03982 | 18729 ft | 403 kts | 194° |
| 2026-04-24 13:37 | 41.56988 | -112.04401 | 18137 ft | 399 kts | 194° |
| 2026-04-24 13:38 | 41.54219 | -112.04729 | 17532 ft | 402 kts | 188° |
| 2026-04-24 13:38 | 41.51410 | -112.04634 | 16984 ft | 402 kts | 183° |
| 2026-04-24 13:38 | 41.48628 | -112.04365 | 16433 ft | 400 kts | 181° |
| 2026-04-24 13:38 | 41.45857 | -112.04088 | 15819 ft | 397 kts | 181° |
| 2026-04-24 13:39 | 41.43111 | -112.03856 | 15279 ft | 394 kts | 182° |
| 2026-04-24 13:39 | 41.40385 | -112.03669 | 14734 ft | 391 kts | 182° |
| 2026-04-24 13:39 | 41.37674 | -112.03512 | 14196 ft | 388 kts | 182° |
| 2026-04-24 13:39 | 41.35000 | -112.03373 | 13650 ft | 387 kts | 182° |
| 2026-04-24 13:40 | 41.32331 | -112.03242 | 13048 ft | 384 kts | 182° |
| 2026-04-24 13:40 | 41.29646 | -112.03103 | 12470 ft | 382 kts | 181° |
| 2026-04-24 13:40 | 41.27006 | -112.02957 | 12034 ft | 376 kts | 181° |
| 2026-04-24 13:40 | 41.24482 | -112.02821 | 11884 ft | 347 kts | 182° |
| 2026-04-24 13:41 | 41.22185 | -112.02766 | 11890 ft | 313 kts | 184° |
| 2026-04-24 13:41 | 41.20081 | -112.02812 | 11911 ft | 293 kts | 186° |
| 2026-04-24 13:41 | 41.18070 | -112.02861 | 11943 ft | 291 kts | 180° |
| 2026-04-24 13:41 | 41.16067 | -112.02539 | 11701 ft | 289 kts | 175° |
| 2026-04-24 13:42 | 41.14096 | -112.02104 | 11260 ft | 285 kts | 174° |
| 2026-04-24 13:42 | 41.12156 | -112.01686 | 10738 ft | 286 kts | 173° |
| 2026-04-24 13:42 | 41.10220 | -112.01215 | 10254 ft | 277 kts | 174° |
| 2026-04-24 13:42 | 41.08368 | -112.00897 | 9998 ft | 259 kts | 180° |
| 2026-04-24 13:43 | 41.06624 | -112.00709 | 9698 ft | 244 kts | 181° |
| 2026-04-24 13:43 | 41.04990 | -112.00531 | 9535 ft | 226 kts | 180° |
| 2026-04-24 13:43 | 41.03448 | -112.00352 | 9313 ft | 220 kts | 180° |
| 2026-04-24 13:43 | 41.01957 | -112.00175 | 9052 ft | 215 kts | 180° |
| 2026-04-24 13:44 | 41.00472 | -111.99999 | 8729 ft | 213 kts | 179° |
| 2026-04-24 13:44 | 40.99031 | -111.99827 | 8487 ft | 200 kts | 180° |
| 2026-04-24 13:44 | 40.97678 | -111.99667 | 8119 ft | 189 kts | 179° |
| 2026-04-24 13:44 | 40.96387 | -111.99517 | 7703 ft | 181 kts | 180° |
| 2026-04-24 13:45 | 40.95178 | -111.99375 | 7349 ft | 168 kts | 179° |
| 2026-04-24 13:45 | 40.94058 | -111.99243 | 6943 ft | 155 kts | 180° |
| 2026-04-24 13:45 | 40.93052 | -111.99127 | 6715 ft | 144 kts | 178° |
| 2026-04-24 13:45 | 40.91973 | -111.99004 | 6505 ft | 158 kts | 176° |
| 2026-04-24 13:46 | 40.90880 | -111.98876 | 6308 ft | 157 kts | 174° |
| 2026-04-24 13:46 | 40.89821 | -111.98752 | 6089 ft | 151 kts | 174° |
| 2026-04-24 13:46 | 40.88771 | -111.98626 | 5893 ft | 150 kts | 174° |
| 2026-04-24 13:46 | 40.87725 | -111.98507 | 5690 ft | 151 kts | 175° |
| 2026-04-24 13:47 | 40.86687 | -111.98386 | 5487 ft | 152 kts | 176° |
| 2026-04-24 13:47 | 40.85619 | -111.98261 | 5304 ft | 155 kts | 176° |
| 2026-04-24 13:47 | 40.84537 | -111.98134 | 5082 ft | 153 kts | 169° |
| 2026-04-24 13:47 | 40.83512 | -111.98010 | 4864 ft | 147 kts | 174° |
| 2026-04-24 13:48 | 40.82473 | -111.97907 | 4651 ft | 150 kts | 170° |
| 2026-04-24 13:48 | 40.81420 | -111.97767 | 4418 ft | 152 kts | 171° |
| 2026-04-24 13:48 | 40.80728 | -111.97702 | 4267 ft | 149 kts | 169° |
| 2026-04-24 13:48 | 40.79540 | -111.97552 | 4233 ft | 101 kts | 175° |
| 2026-04-24 13:49 | 40.78997 | -111.97490 | 4236 ft | 57 kts | 175° |
| 2026-04-24 13:49 | 40.78686 | -111.97467 | 4235 ft | 36 kts | 187° |
| 2026-04-24 13:49 | 40.78585 | -111.97499 | 4234 ft | 14 kts | 197° |
| 2026-04-24 13:49 | 40.78495 | -111.97546 | 4233 ft | 14 kts | 204° |
| 2026-04-24 13:50 | 40.78457 | -111.97586 | 4232 ft | 6 kts | 247° |
| 2026-04-24 13:50 | 40.78475 | -111.97637 | 4232 ft | 6 kts | 325° |
| 2026-04-24 13:50 | 40.78518 | -111.97652 | 4234 ft | 6 kts | 351° |
| 2026-04-24 13:50 | 40.78567 | -111.97660 | 4236 ft | 9 kts | 354° |
| 2026-04-24 13:51 | 40.78632 | -111.97668 | 4238 ft | 9 kts | 355° |
| 2026-04-24 13:51 | 40.78701 | -111.97675 | 4238 ft | 11 kts | 355° |
| 2026-04-24 13:51 | 40.78781 | -111.97683 | 4237 ft | 12 kts | 355° |
| 2026-04-24 13:51 | 40.78818 | -111.97699 | 4238 ft | 5 kts | 311° |
| 2026-04-24 13:52 | 40.78826 | -111.97747 | 4238 ft | 7 kts | 276° |
| 2026-04-24 13:52 | 40.78823 | -111.97821 | 4239 ft | 9 kts | 264° |
| 2026-04-24 13:52 | 40.78814 | -111.97920 | 4239 ft | 13 kts | 262° |
| 2026-04-24 13:52 | 40.78803 | -111.98056 | 4237 ft | 17 kts | 264° |
| 2026-04-24 13:53 | 40.78792 | -111.98212 | 4235 ft | 17 kts | 265° |
| 2026-04-24 13:53 | 40.78781 | -111.98372 | 4237 ft | 17 kts | 265° |
| 2026-04-24 13:53 | 40.78780 | -111.98436 | 4238 ft | 4 kts | 279° |
| 2026-04-24 13:53 | 40.78787 | -111.98471 | 4237 ft | 4 kts | 306° |
| 2026-04-24 13:54 | 40.78814 | -111.98481 | 4238 ft | 4 kts | 357° |
| 2026-04-24 13:54 | 40.78830 | -111.98481 | 4239 ft | 0 kts | 6° |